createdAt,value
2022-11-12T00:01:55.920Z,5.12
2022-11-12T00:04:23.627Z,5.05
2022-11-12T00:06:52.693Z,5.06
2022-11-12T00:09:20.631Z,5.08
2022-11-12T00:11:48.323Z,5.14
2022-11-12T00:14:15.935Z,5.11
2022-11-12T00:16:43.621Z,5.11
2022-11-12T00:19:11.345Z,5.15
2022-11-12T00:21:39.036Z,5.16
2022-11-12T00:24:08.353Z,5.11
2022-11-12T00:26:36.308Z,5.04
2022-11-12T00:29:04.225Z,5.02
2022-11-12T00:31:31.958Z,5.01
2022-11-12T00:33:59.630Z,5.01
2022-11-12T00:36:27.263Z,4.94
2022-11-12T00:38:54.978Z,4.94
2022-11-12T00:41:24.030Z,4.92
2022-11-12T00:43:51.679Z,4.89
2022-11-12T00:46:19.315Z,4.91
2022-11-12T00:48:46.957Z,4.90
2022-11-12T00:51:14.631Z,4.89
2022-11-12T00:53:42.300Z,4.81
2022-11-12T00:56:10.832Z,4.79
2022-11-12T00:58:39.887Z,4.76
2022-11-12T01:01:09.577Z,4.71
2022-11-12T01:03:37.795Z,4.69
2022-11-12T01:06:06.111Z,4.66
2022-11-12T01:08:34.020Z,4.68
2022-11-12T01:11:07.139Z,4.71
2022-11-12T01:13:37.718Z,4.72
2022-11-12T01:16:10.047Z,4.69
2022-11-12T01:18:37.916Z,4.69
2022-11-12T01:21:07.568Z,4.62
2022-11-12T01:23:36.710Z,4.61
2022-11-12T01:26:05.461Z,4.65
2022-11-12T01:28:33.299Z,4.63
2022-11-12T01:31:13.555Z,4.58
2022-11-12T01:33:41.212Z,4.51
2022-11-12T01:36:09.771Z,4.49
2022-11-12T01:38:38.296Z,4.35
2022-11-12T01:41:07.514Z,4.33
2022-11-12T01:43:35.285Z,4.44
2022-11-12T01:46:05.449Z,4.54
2022-11-12T01:48:36.642Z,4.60
2022-11-12T01:51:05.177Z,4.61
2022-11-12T01:53:36.379Z,4.60
2022-11-12T01:56:05.073Z,4.57
2022-11-12T01:58:33.914Z,4.62
2022-11-12T02:01:02.229Z,4.66
2022-11-12T02:03:29.971Z,4.64
2022-11-12T02:06:02.911Z,4.57
2022-11-12T02:08:31.382Z,4.55
2022-11-12T02:10:59.152Z,4.57
2022-11-12T02:13:44.138Z,4.60
2022-11-12T02:16:12.054Z,4.60
2022-11-12T02:18:39.892Z,4.63
2022-11-12T02:21:10.410Z,4.48
2022-11-12T02:23:39.654Z,4.53
2022-11-12T02:26:07.389Z,4.54
2022-11-12T02:28:35.085Z,4.58
2022-11-12T02:31:02.767Z,4.63
2022-11-12T02:33:30.434Z,4.69
2022-11-12T02:35:58.122Z,4.70
2022-11-12T02:38:25.992Z,4.65
2022-11-12T02:40:55.269Z,4.72
2022-11-12T02:43:22.905Z,4.77
2022-11-12T02:45:50.592Z,4.81
2022-11-12T02:48:19.407Z,4.80
2022-11-12T02:50:48.384Z,4.79
2022-11-12T02:53:16.038Z,4.78
2022-11-12T02:55:43.972Z,4.76
2022-11-12T02:58:13.047Z,4.73
2022-11-12T03:00:40.853Z,4.77
2022-11-12T03:03:08.612Z,4.78
2022-11-12T03:05:37.166Z,4.78
2022-11-12T03:08:07.011Z,4.82
2022-11-12T03:10:35.048Z,4.86
2022-11-12T03:13:02.712Z,4.89
2022-11-12T03:15:32.185Z,4.93
2022-11-12T03:18:00.471Z,4.96
2022-11-12T03:20:28.456Z,4.95
2022-11-12T03:22:57.464Z,4.97
2022-11-12T03:25:25.595Z,5.00
2022-11-12T03:28:00.153Z,5.05
2022-11-12T03:30:28.552Z,5.09
2022-11-12T03:32:57.707Z,5.11
2022-11-12T03:35:26.736Z,5.06
2022-11-12T03:37:54.466Z,4.98
2022-11-12T03:40:22.169Z,4.93
2022-11-12T03:42:51.321Z,4.94
2022-11-12T03:45:20.216Z,4.98
2022-11-12T03:47:49.320Z,4.97
2022-11-12T03:50:19.982Z,5.03
2022-11-12T03:52:48.518Z,5.09
2022-11-12T03:55:18.253Z,5.13
2022-11-12T03:57:46.145Z,4.93
2022-11-12T04:00:14.645Z,4.73
2022-11-12T04:02:42.306Z,4.66
2022-11-12T04:05:28.551Z,4.59
2022-11-12T04:08:19.000Z,4.57
2022-11-12T04:10:46.785Z,4.55
2022-11-12T04:13:29.724Z,4.59
2022-11-12T04:16:16.419Z,4.55
2022-11-12T04:19:02.668Z,4.53
2022-11-12T04:21:50.378Z,4.53
2022-11-12T04:24:37.659Z,4.47
2022-11-12T04:27:05.765Z,4.39
2022-11-12T04:29:51.003Z,4.33
2022-11-12T04:32:19.138Z,4.32
2022-11-12T04:34:46.983Z,4.34
2022-11-12T04:37:14.685Z,4.31
2022-11-12T04:39:43.711Z,4.30
2022-11-12T04:42:29.092Z,4.35
2022-11-12T04:45:03.967Z,4.44
2022-11-12T04:47:34.673Z,4.41
2022-11-12T04:50:03.282Z,4.38
2022-11-12T04:52:31.544Z,4.51
2022-11-12T04:55:01.133Z,4.59
2022-11-12T04:57:28.759Z,4.58
2022-11-12T04:59:56.400Z,4.57
2022-11-12T05:02:24.064Z,4.55
2022-11-12T05:04:51.729Z,4.57
2022-11-12T05:07:19.502Z,4.55
2022-11-12T05:09:47.308Z,4.59
2022-11-12T05:12:16.404Z,4.64
2022-11-12T05:14:44.032Z,4.67
2022-11-12T05:17:11.658Z,4.70
2022-11-12T05:19:39.277Z,4.73
2022-11-12T05:22:06.016Z,4.74
2022-11-12T05:24:41.915Z,4.72
2022-11-12T05:27:12.696Z,4.72
2022-11-12T05:29:41.852Z,4.75
2022-11-12T05:32:10.629Z,4.80
2022-11-12T05:34:38.352Z,4.83
2022-11-12T05:37:08.103Z,4.85
2022-11-12T05:39:35.838Z,4.87
2022-11-12T05:42:12.972Z,4.87
2022-11-12T05:44:43.090Z,4.85
2022-11-12T05:47:10.842Z,4.81
2022-11-12T05:49:38.498Z,4.88
2022-11-12T05:52:06.215Z,4.90
2022-11-12T05:54:33.920Z,4.93
2022-11-12T05:57:01.565Z,4.94
2022-11-12T05:59:29.377Z,4.74
2022-11-12T06:01:58.490Z,4.72
2022-11-12T06:04:26.256Z,4.79
2022-11-12T06:06:53.998Z,4.79
2022-11-12T06:09:21.658Z,4.85
2022-11-12T06:11:49.373Z,4.90
2022-11-12T06:14:17.052Z,4.90
2022-11-12T06:16:44.664Z,4.87
2022-11-12T06:19:13.703Z,4.91
2022-11-12T06:21:41.445Z,4.92
2022-11-12T06:24:09.687Z,4.97
2022-11-12T06:26:37.997Z,4.94
2022-11-12T06:29:05.837Z,4.99
2022-11-12T06:31:33.576Z,5.00
2022-11-12T06:34:01.324Z,5.05
2022-11-12T06:36:30.344Z,4.88
2022-11-12T06:38:58.062Z,4.83
2022-11-12T06:41:25.732Z,4.89
2022-11-12T06:43:53.427Z,4.93
2022-11-12T06:46:21.140Z,5.00
2022-11-12T06:48:48.851Z,4.97
2022-11-12T06:51:18.509Z,4.99
2022-11-12T06:53:48.239Z,4.97
2022-11-12T06:56:16.781Z,5.01
2022-11-12T06:58:44.689Z,5.05
2022-11-12T07:01:15.107Z,5.08
2022-11-12T07:03:44.084Z,5.14
2022-11-12T07:06:13.593Z,5.08
2022-11-12T07:08:42.104Z,5.11
2022-11-12T07:11:11.377Z,5.11
2022-11-12T07:13:39.388Z,5.05
2022-11-12T07:16:08.842Z,5.06
2022-11-12T07:18:36.578Z,5.09
2022-11-12T07:21:07.075Z,5.12
2022-11-12T07:23:36.391Z,5.11
2022-11-12T07:26:06.467Z,5.13
2022-11-12T07:28:35.712Z,5.15
2022-11-12T07:31:05.804Z,5.12
2022-11-12T07:33:34.708Z,5.14
2022-11-12T07:36:04.415Z,5.19
2022-11-12T07:38:33.359Z,5.20
2022-11-12T07:41:02.353Z,5.21
2022-11-12T07:43:30.679Z,5.25
2022-11-12T07:46:10.103Z,5.24
2022-11-12T07:48:38.525Z,5.27
2022-11-12T07:51:08.330Z,5.26
2022-11-12T07:53:36.019Z,5.14
2022-11-12T07:56:04.802Z,5.23
2022-11-12T07:58:33.798Z,5.31
2022-11-12T08:01:10.247Z,5.35
2022-11-12T08:03:38.220Z,5.42
2022-11-12T08:06:06.255Z,5.39
2022-11-12T08:08:33.934Z,5.45
2022-11-12T08:11:01.680Z,5.54
2022-11-12T08:13:29.308Z,5.58
2022-11-12T08:15:58.326Z,5.63
2022-11-12T08:18:28.101Z,5.52
2022-11-12T08:21:00.587Z,5.54
2022-11-12T08:23:28.368Z,5.59
2022-11-12T08:25:59.500Z,5.57
2022-11-12T08:28:27.897Z,5.68
2022-11-12T08:30:56.660Z,5.77
2022-11-12T08:33:25.213Z,5.81
2022-11-12T08:35:54.223Z,5.86
2022-11-12T08:38:21.818Z,5.93
2022-11-12T08:40:49.572Z,5.99
2022-11-12T08:43:17.265Z,6.01
2022-11-12T08:45:44.924Z,5.99
2022-11-12T08:48:14.322Z,5.94
2022-11-12T08:50:42.250Z,5.84
2022-11-12T08:53:13.284Z,5.86
2022-11-12T08:55:41.128Z,5.74
2022-11-12T08:58:10.795Z,5.77
2022-11-12T09:00:40.413Z,5.84
2022-11-12T09:03:13.568Z,5.89
2022-11-12T09:05:41.323Z,5.97
2022-11-12T09:08:12.023Z,5.82
2022-11-12T09:10:40.259Z,5.89
2022-11-12T09:13:08.031Z,6.01
2022-11-12T09:15:38.287Z,6.07
2022-11-12T09:18:08.187Z,6.13
2022-11-12T09:20:36.129Z,6.26
2022-11-12T09:23:05.899Z,6.32
2022-11-12T09:25:35.113Z,6.17
2022-11-12T09:28:08.010Z,6.20
2022-11-12T09:30:36.177Z,6.23
2022-11-12T09:33:04.116Z,6.33
2022-11-12T09:35:32.183Z,6.43
2022-11-12T09:38:00.725Z,6.54
2022-11-12T09:40:38.185Z,6.48
2022-11-12T09:43:18.837Z,6.24
2022-11-12T09:46:06.363Z,6.32
2022-11-12T09:48:38.381Z,6.27
2022-11-12T09:51:09.258Z,6.30
2022-11-12T09:53:44.274Z,6.30
2022-11-12T09:56:15.461Z,6.31
2022-11-12T09:58:43.724Z,6.43
2022-11-12T10:01:15.544Z,6.66
2022-11-12T10:03:50.164Z,6.85
2022-11-12T10:06:20.598Z,7.03
2022-11-12T10:08:52.592Z,7.03
2022-11-12T10:12:05.064Z,7.04
2022-11-12T10:14:46.410Z,7.21
2022-11-12T10:17:19.429Z,7.12
2022-11-12T10:19:54.221Z,7.17
2022-11-12T10:22:30.543Z,7.30
2022-11-12T10:24:58.912Z,7.36
2022-11-12T10:27:35.269Z,7.36
2022-11-12T10:30:05.069Z,7.07
2022-11-12T10:32:33.240Z,7.11
2022-11-12T10:35:01.115Z,7.22
2022-11-12T10:37:35.149Z,7.29
2022-11-12T10:40:28.764Z,7.40
2022-11-12T10:42:59.563Z,7.54
2022-11-12T10:45:27.955Z,7.61
2022-11-12T10:47:56.191Z,7.70
2022-11-12T10:50:26.917Z,7.77
2022-11-12T10:52:56.958Z,7.86
2022-11-12T10:55:25.971Z,7.95
2022-11-12T10:58:19.954Z,7.94
2022-11-12T11:00:56.775Z,7.69
2022-11-12T11:03:26.407Z,7.41
2022-11-12T11:05:56.929Z,7.57
2022-11-12T11:08:43.066Z,7.72
2022-11-12T11:11:28.329Z,7.78
2022-11-12T11:13:59.368Z,7.86
2022-11-12T11:16:28.369Z,7.94
2022-11-12T11:18:58.030Z,8.01
2022-11-12T11:22:03.144Z,8.03
2022-11-12T11:24:38.262Z,8.09
2022-11-12T11:27:09.290Z,8.18
2022-11-12T11:29:57.764Z,8.21
2022-11-12T11:32:39.054Z,8.19
2022-11-12T11:35:16.204Z,8.11
2022-11-12T11:37:48.878Z,8.25
2022-11-12T11:40:22.518Z,8.29
2022-11-12T11:43:06.926Z,8.39
2022-11-12T11:45:51.411Z,8.39
2022-11-12T11:48:28.922Z,8.25
2022-11-12T11:51:00.982Z,8.16
2022-11-12T11:53:31.642Z,7.99
2022-11-12T11:56:02.407Z,8.19
2022-11-12T11:58:43.612Z,8.38
2022-11-12T12:01:18.906Z,8.23
2022-11-12T12:04:08.196Z,8.27
2022-11-12T12:06:42.193Z,8.27
2022-11-12T12:09:22.891Z,8.33
2022-11-12T12:11:55.864Z,8.47
2022-11-12T12:14:33.392Z,8.63
2022-11-12T12:17:09.356Z,8.64
2022-11-12T12:19:46.095Z,8.74
2022-11-12T12:22:16.640Z,8.83
2022-11-12T12:24:50.191Z,8.84
2022-11-12T12:27:20.732Z,8.92
2022-11-12T12:29:51.734Z,8.92
2022-11-12T12:32:24.658Z,8.94
2022-11-12T12:34:57.705Z,8.97
2022-11-12T12:37:28.623Z,8.95
2022-11-12T12:40:03.087Z,9.00
2022-11-12T12:42:33.132Z,9.01
2022-11-12T12:45:15.983Z,9.00
2022-11-12T12:47:45.652Z,9.04
2022-11-12T12:50:15.734Z,9.02
2022-11-12T12:53:03.266Z,9.04
2022-11-12T12:55:40.668Z,9.01
2022-11-12T12:58:18.044Z,9.06
2022-11-12T13:00:48.825Z,9.06
2022-11-12T13:03:46.144Z,9.02
2022-11-12T13:06:16.540Z,8.90
2022-11-12T13:08:44.214Z,8.86
2022-11-12T13:11:12.083Z,8.88
2022-11-12T13:13:40.307Z,8.83
2022-11-12T13:16:08.665Z,8.53
2022-11-12T13:19:03.085Z,8.59
2022-11-12T13:21:30.920Z,8.58
2022-11-12T13:24:10.987Z,8.62
2022-11-12T13:26:46.829Z,8.53
2022-11-12T13:29:43.640Z,8.48
2022-11-12T13:32:32.356Z,8.40
2022-11-12T13:35:29.757Z,8.39
2022-11-12T13:38:00.474Z,8.40
2022-11-12T13:40:41.296Z,8.44
2022-11-12T13:43:14.626Z,8.46
2022-11-12T13:45:46.131Z,8.48
2022-11-12T13:48:17.332Z,8.39
2022-11-12T13:50:52.368Z,8.39
2022-11-12T13:53:21.820Z,8.44
2022-11-12T13:55:49.680Z,8.41
2022-11-12T13:58:20.488Z,8.45
2022-11-12T14:00:55.124Z,8.41
2022-11-12T14:03:23.124Z,8.35
2022-11-12T14:05:52.384Z,8.38
2022-11-12T14:08:29.620Z,8.42
2022-11-12T14:11:15.326Z,8.40
2022-11-12T14:13:52.477Z,8.44
2022-11-12T14:16:29.390Z,8.41
2022-11-12T14:19:13.501Z,8.20
2022-11-12T14:21:42.743Z,8.18
2022-11-12T14:24:12.263Z,8.22
2022-11-12T14:26:41.766Z,8.18
2022-11-12T14:29:17.776Z,8.19
2022-11-12T14:31:45.687Z,8.22
2022-11-12T14:34:23.791Z,8.16
2022-11-12T14:36:55.909Z,8.20
2022-11-12T14:39:25.900Z,8.25
2022-11-12T14:41:55.383Z,8.12
2022-11-12T14:44:26.483Z,8.08
2022-11-12T14:46:56.219Z,8.12
2022-11-12T14:49:29.404Z,8.07
2022-11-12T14:52:05.519Z,8.09
2022-11-12T14:54:36.243Z,8.12
2022-11-12T14:57:04.824Z,8.13
2022-11-12T14:59:32.846Z,8.14
2022-11-12T15:05:00.477Z,7.97
2022-11-12T15:07:32.268Z,7.73
2022-11-12T15:10:00.358Z,7.67
2022-11-12T15:12:30.217Z,7.62
2022-11-12T15:15:09.371Z,7.65
2022-11-12T15:17:38.336Z,7.63
2022-11-12T15:20:08.117Z,7.68
2022-11-12T15:22:37.261Z,7.64
2022-11-12T15:25:13.269Z,7.59
2022-11-12T15:27:42.074Z,7.63
2022-11-12T15:30:17.285Z,7.63
2022-11-12T15:32:45.193Z,7.47
2022-11-12T15:35:38.047Z,7.40
2022-11-12T15:38:13.936Z,7.38
2022-11-12T15:40:44.898Z,7.36
2022-11-12T15:43:17.450Z,7.17
2022-11-12T15:45:49.440Z,7.13
2022-11-12T15:48:17.221Z,6.97
2022-11-12T15:50:45.012Z,6.83
2022-11-12T15:53:14.473Z,6.76
2022-11-12T15:55:42.869Z,6.75
2022-11-12T15:58:16.047Z,6.75
2022-11-12T16:00:43.792Z,6.71
2022-11-12T16:03:15.217Z,6.71
2022-11-12T16:05:43.631Z,6.64
2022-11-12T16:08:11.445Z,6.62
2022-11-12T16:10:41.970Z,6.70
2022-11-12T16:13:15.249Z,6.71
2022-11-12T16:15:43.552Z,6.59
2022-11-12T16:18:13.034Z,6.56
2022-11-12T16:20:41.801Z,6.41
2022-11-12T16:23:12.844Z,6.33
2022-11-12T16:25:44.321Z,6.36
2022-11-12T16:28:21.986Z,6.33
2022-11-12T16:30:54.806Z,6.32
2022-11-12T16:33:26.416Z,6.27
2022-11-12T16:35:58.310Z,6.18
2022-11-12T16:38:27.675Z,6.24
2022-11-12T16:40:58.111Z,6.24
2022-11-12T16:43:28.975Z,6.23
2022-11-12T16:45:57.783Z,6.21
2022-11-12T16:48:26.790Z,6.22
2022-11-12T16:50:55.752Z,6.21
2022-11-12T16:53:24.290Z,6.23
